Saint Michael, Minnesota
Current Conditions -  °F | °C
As of 8:55 PM on Friday 19 Dec 2014 (Local Time) from KCFE Reporting Station
Haze Haze  
Wind Chill: 25°   Ceiling: 900
Heat Index: 30°   Visibility: 5mi
Dew Point: 27°   Wind: 5mph
Humidity: 89%   Direction: 140°SE
Pressure: 30.15"   Gusts: NA
Location:  45.21°N, 93.66°W
Report Text: KCFE 200255Z AUTO 14004KT 5SM BR BKN009 OVC015 M01/M03 A3015 RMK AO2 T10121028
Loading
Personal Weather Stations






























Interactive Weather Map New forecast layout! Learn more

10-Day Weather Forecast

Advertisements
Track Severe Weather on mobile